• Join FlightAware (Why Join?)
  • Login
  • US Flag 
08:52PM EDT


 

Airport Tracker/Info


-or-


 

Live Flight TrackerFlight Track Log ✈ EJA646 ✈ 17-Apr-2013 ✈ KMKL - KTYS

Flight Track Log - Related Links

Times and Time Zones

All times are in EDT time to prevent confusion due to time zone crossing. See the EJA646 flight status page for this flight to view local times or setup timezone preferences in your user account.

Time Position Orientation Groundspeed Altitude Reporting Facility
EDT Latitude Longitude Course Direction KTS MPH feet Rate Location/Type
06:53PM 35.5636 -88.8614 131° Southeast 364 419 5,500  Level Memphis Center
06:54PM 35.5608 -88.8131 94° East 208 239 8,700 3,120 Climbing Memphis Center
06:55PM 35.5578 -88.7339 93° East 208 239 11,800 3,060 Climbing Memphis Center
06:56PM 35.5608 -88.6472 87° East 224 258 14,900 3,180 Climbing Memphis Center
06:57PM 35.5575 -88.5578 93° East 245 282 18,200 3,300 Climbing Memphis Center
06:58PM 35.6441 -88.1820 131° Southeast  Level Estimated
06:58PM 35.5644 -88.4708 84° East 251 289 21,500  Level Memphis Center
06:59PM 35.5756 -88.3711 82° East 270 311 23,000 720 Climbing Memphis Center
07:00PM 35.6006 -88.2481 76° East 316 364 23,000  Level Memphis Center
07:01PM 35.6253 -88.1144 77° East 369 425 23,000  Level Memphis Center
07:02PM 35.6478 -87.9761 79° East 396 456 23,000 840 Level Memphis Center
07:03PM 35.6742 -87.8397 77° East 407 468 24,700 960 Climbing Memphis Center
07:04PM 35.6964 -87.7011 79° East 407 468 25,000 120 Climbing Memphis Center
07:05PM 35.7017 -87.5578 87° East 417 480 25,000  Level Memphis Center
07:06PM 35.7086 -87.4169 86° East 411 473 25,000  Level Memphis Center
07:07PM 35.7139 -87.2839 87° East 401 461 25,000  Level Memphis Center
07:08PM 35.7206 -87.1403 87° East 387 445 25,000  Level Memphis Center
07:09PM 35.7253 -87.0047 88° East 387 445 25,000  Level Memphis Center
07:10PM 35.7300 -86.8689 88° East 392 451 25,000  Level Memphis Center
07:11PM 35.7344 -86.7331 88° East 392 451 25,000  Level Memphis Center
07:12PM 35.7389 -86.6000 88° East 392 451 25,000  Level Memphis Center
07:13PM 35.7450 -86.4642 87° East 392 451 25,000 -360 Level Memphis Center
07:14PM 35.7511 -86.3308 87° East 392 451 24,300 -1,200 Descending Memphis Center
07:15PM 35.7547 -86.1822 88° East 406 467 22,600 -1,680 Descending Memphis Center
07:16PM 35.7600 -86.0361 87° East 426 490 21,000 -1,140 Descending Memphis Center
07:17PM 35.7656 -85.8978 87° East 421 484 20,400 -1,500 Descending Memphis Center
07:18PM 35.7692 -85.7697 88° East 397 457 18,000 -2,520 Descending Memphis Center
07:20PM 35.7764 -85.5003 88° East 329 379 11,900 -2,040 Descending Atlanta Center
07:21PM 35.7797 -85.3850 88° East 321 369 11,100 -420 Descending Atlanta Center
07:22PM 35.7831 -85.2622 88° East 334 384 11,100  Level Atlanta Center
07:23PM 35.7864 -85.1394 88° East 347 399 11,100  Level Atlanta Center
07:24PM 35.7894 -85.0167 88° East 352 405 11,100  Level Atlanta Center
07:25PM 35.7925 -84.8939 88° East 352 405 11,100  Level Atlanta Center
07:26PM 35.7953 -84.7811 88° East 357 411 11,100  Level Atlanta Center
07:27PM 35.7981 -84.6608 88° East 357 411 11,100 -360 Level Atlanta Center
07:28PM 35.8006 -84.5431 88° East 357 411 10,400 -1,140 Descending Atlanta Center
07:29PM 35.7761 -84.4483 108° East 309 356 8,900 -1,920 Descending Atlanta Center
07:30PM 35.7681 -84.3511 96° East 304 350 6,600 -2,400 Descending Atlanta Center
07:31PM 35.7661 -84.2511 91° East 293 337 4,200 -1,860 Descending Atlanta Center
07:32PM 35.7661 -84.1589 90° East 281 323 2,900 -900 Descending Atlanta Center
07:33PM 35.7683 -84.0797 88° East 257 296 2,400 -540 Descending Atlanta Center
07:35PM 35.8000 -83.9833 90° East  Level FlightAware Approximate
07:42PM 35.8110 -83.9940 90° East  Level Estimated
07:43PM 35.8110 -83.9940 90° East  Level Estimated